Eugene, OR

10:38 PM PDT on September 01, 2015 (GMT -0700)
North Eugene | | Change Station
CLOSE
Current Station
Personal Weather Station
Location: Eugene, OR
Elevation: 420 ft
Nearby Weather Stations

Elev 420 ft 44.09 °N, 123.07 °W | Updated 3 minutes ago

Mostly Cloudy
Mostly Cloudy
64.2 °F
Feels Like 64.2 °F
N
0.0
Wind Variable Wind from WSW
Gusts 4.0 mph

Today
High -- | Low -- °F
--% Chance of Precip.
Yesterday
High -- | Low -- °F
Precip. -- in
6:35 AM 7:48 PM
Waning Gibbous, 83% visible
Pressure 29.91 in
Visibility 10.0 miles
Clouds Scattered Clouds 4100 ft
Mostly Cloudy 6500 ft
Mostly Cloudy 20000 ft
Dew Point 29 °F
Humidity 26%
Rainfall 0.00 in
Snow Depth Not available.
UV 0 out of 12
Pollen 3.20 out of 12
Air Quality Not available.
Flu Activity Not available.
METAR KEUG 020454Z 23006KT 10SM SCT041 BKN065 BKN200 17/12 A2991 RMK AO2 SLP128 T01720122
Pressure 29.91 in
Visibility 10.0 miles
Clouds Scattered Clouds 4100 ft
Mostly Cloudy 6500 ft
Mostly Cloudy 20000 ft
Dew Point 29 °F
Humidity 26%
Rainfall 0.00 in
Snow Depth Not available.
UV 0 out of 12
Pollen 3.20 out of 12
Air Quality Not available.
Flu Activity Not available.
METAR KEUG 020454Z 23006KT 10SM SCT041 BKN065 BKN200 17/12 A2991 RMK AO2 SLP128 T01720122

10-Day Weather Forecast

×

Almanac

Astronomy

Sep. 01, 2015 Rise Set
Actual Time
Civil Twilight
Nautical Twilight
Astronomical Twilight
Moon
Length of Visible Light
Length of Day
Tomorrow will be .
, % of the Moon is Illuminated

Today's Extremes

State Highs State Lows

Community

WunderPhotos

Upload Photos

1,851,709 photos uploaded!

WunderBlogs® & News

Nearby

Air Quality

  Air Quality AQ Index Pollutant
Not available.

Snow Depth

Station Depth Elevation

Earthquake Activity

City Distance Mag. Time & Date
Minimum magnitude displayed is 2.5.

Coastal Water Temperatures

Place Temperature

Stations

Nearby Weather Stations

Station Location Temp. Windchill Dew Point Humidity Wind Precip. Elev Updated Type